Etusivu
METAR-TAF:

METAR-TAF

Lentoasemat :

Luxorin kansainvälinen lentoasema

Luxor, Egypti

Leveyspiiri: 25-40N, Pituuspiiri: 032-42E, korkeus merenpinnasta: 93 m

Tämänhetkinen sää

Tämä raportti tehtiin 1 tunti ja 3 minuuttia sitten, kello 15.00 UTC
Tuuli 9 kn luoteesta
Lämpötila 19°C
Kosteus 34%
Ilmanpaine 1016 hPa
Näkyvyys 10 km tai enemmän
ei pilviä alle 1500 m:ssä eikä cumulonimbus-pilviä

METAR: HELX 061500Z 31009KT CAVOK 19/03 Q1016 NOSIG

Aika: 18:03 (16:03 UTC)

Sääennuste

Tämä raportti tehtiin 5 tuntia ja 3 minuuttia sitten, kello 11.00 UTC
Ennuste voimassa 06. päivästä klo 12 UTC - 07. päivään klo 18 UTC
Tuuli 12 kn pohjoisesta/koillisesta
Näkyvyys 10 km tai enemmän
ei pilviä alle 1500 m:ssä eikä cumulonimbus-pilviä

TAF: HELX 061100Z 0612/0718 02012KT CAVOK

Säähavainnot ja -ennusteet yli 4000 lentoasemalta (METAR- ja TAF-raportit).

Käytössä olevat sääasemat on merkitty karttaan keltaisilla ja punaisilla pisteillä.

Aseta hiiri pisteen päälle nähdäksesi sääaseman nimen.

Klikkaa sitten nähdäksesi säähavainnot ja -ennusteet.

Kartan vaihtaminen: klikkaa mustalla rastilla varustettuja vihreitä pisteitä, niin voit zoomata sisään; viivalla varustettua vihreää pistettä, niin voit zoomata ulos tai vihreitä nuolia, niin pääset viereisille kartoille.


METAR-TAF: